createdAt,value
2023-03-15T00:01:48.865Z,14.20
2023-03-15T00:04:36.616Z,9.50
2023-03-15T00:07:25.214Z,9.50
2023-03-15T00:10:11.797Z,10.90
2023-03-15T00:12:58.223Z,8.70
2023-03-15T00:15:56.255Z,10.50
2023-03-15T00:18:43.437Z,7.10
2023-03-15T00:21:30.028Z,10.30
2023-03-15T00:24:16.349Z,6.50
2023-03-15T00:27:03.102Z,11.30
2023-03-15T00:29:49.798Z,8.80
2023-03-15T00:32:36.142Z,12.40
2023-03-15T00:35:23.447Z,9.70
2023-03-15T00:38:10.769Z,11.10
2023-03-15T00:40:57.229Z,8.90
2023-03-15T00:43:45.065Z,11.90
2023-03-15T00:46:31.806Z,9.70
2023-03-15T00:49:18.268Z,11.80
2023-03-15T00:52:07.376Z,13.80
2023-03-15T00:54:55.318Z,13.00
2023-03-15T00:57:44.721Z,6.90
2023-03-15T01:00:31.507Z,10.40
2023-03-15T01:03:18.064Z,10.00
2023-03-15T01:06:11.440Z,10.20
2023-03-15T01:08:58.307Z,9.40
2023-03-15T01:11:44.712Z,7.60
2023-03-15T01:14:30.894Z,10.30
2023-03-15T01:17:18.401Z,8.30
2023-03-15T01:20:06.272Z,14.50
2023-03-15T01:22:52.760Z,10.10
2023-03-15T01:25:39.908Z,7.80
2023-03-15T01:28:26.558Z,11.00
2023-03-15T01:31:20.640Z,6.50
2023-03-15T01:34:08.131Z,9.30
2023-03-15T01:36:54.556Z,6.70
2023-03-15T01:39:48.233Z,8.10
2023-03-15T01:42:53.477Z,8.40
2023-03-15T01:46:01.779Z,10.50
2023-03-15T01:48:56.218Z,11.70
2023-03-15T01:52:01.425Z,11.80
2023-03-15T01:55:18.918Z,13.20
2023-03-15T01:58:27.057Z,12.60
2023-03-15T02:01:16.260Z,23.30
2023-03-15T02:04:11.873Z,17.20
2023-03-15T02:07:03.192Z,12.70
2023-03-15T02:10:02.900Z,10.80
2023-03-15T02:12:52.780Z,7.70
2023-03-15T02:15:39.433Z,9.10
2023-03-15T02:18:26.176Z,9.50
2023-03-15T02:21:20.970Z,12.90
2023-03-15T02:24:59.822Z,11.70
2023-03-15T02:27:46.145Z,8.40
2023-03-15T02:30:35.092Z,7.70
2023-03-15T02:33:28.907Z,6.90
2023-03-15T02:36:21.035Z,9.90
2023-03-15T02:39:18.636Z,8.90
2023-03-15T02:42:05.664Z,10.70
2023-03-15T02:44:53.783Z,13.10
2023-03-15T02:47:40.521Z,12.40
2023-03-15T02:50:27.057Z,6.50
2023-03-15T02:53:13.753Z,7.90
2023-03-15T02:56:00.108Z,6.60
2023-03-15T02:58:47.164Z,13.20
2023-03-15T03:01:36.583Z,11.30
2023-03-15T03:04:23.224Z,9.40
2023-03-15T03:07:09.831Z,11.30
2023-03-15T03:10:10.730Z,12.60
2023-03-15T03:13:04.923Z,10.70
2023-03-15T03:15:57.904Z,12.70
2023-03-15T03:18:45.922Z,7.60
2023-03-15T03:21:32.794Z,9.60
2023-03-15T03:24:20.082Z,10.60
2023-03-15T03:27:06.891Z,12.10
2023-03-15T03:29:55.411Z,9.50
2023-03-15T03:32:42.239Z,8.40
2023-03-15T03:35:31.237Z,15.00
2023-03-15T03:38:17.689Z,13.00
2023-03-15T03:41:10.179Z,12.00
2023-03-15T03:43:57.602Z,10.30
2023-03-15T03:46:44.719Z,9.10
2023-03-15T03:49:31.780Z,12.70
2023-03-15T03:52:18.343Z,9.30
2023-03-15T03:55:05.364Z,12.10
2023-03-15T03:57:54.803Z,11.30
2023-03-15T04:01:04.957Z,10.90
2023-03-15T04:03:51.584Z,17.20
2023-03-15T04:06:44.962Z,11.00
2023-03-15T04:09:36.628Z,9.80
2023-03-15T04:12:23.782Z,7.70
2023-03-15T04:15:12.584Z,11.30
2023-03-15T04:17:59.489Z,11.00
2023-03-15T04:20:53.972Z,8.50
2023-03-15T04:23:40.904Z,9.30
2023-03-15T04:26:37.411Z,9.80
2023-03-15T04:29:46.312Z,9.70
2023-03-15T04:33:03.297Z,5.50
2023-03-15T04:36:27.978Z,9.80
2023-03-15T04:39:33.326Z,9.10
2023-03-15T04:42:44.850Z,9.60
2023-03-15T04:45:54.477Z,10.50
2023-03-15T04:49:02.736Z,6.30
2023-03-15T04:52:12.121Z,6.40
2023-03-15T04:55:17.433Z,8.70
2023-03-15T04:58:26.656Z,9.30
2023-03-15T05:01:37.095Z,12.90
2023-03-15T05:04:38.023Z,10.70
2023-03-15T05:07:58.928Z,8.70
2023-03-15T05:11:08.397Z,6.70
2023-03-15T05:14:04.005Z,10.10
2023-03-15T05:17:10.606Z,5.90
2023-03-15T05:20:32.501Z,9.30
2023-03-15T05:23:39.586Z,10.00
2023-03-15T05:26:26.172Z,7.90
2023-03-15T05:29:31.124Z,8.80
2023-03-15T05:32:44.103Z,10.90
2023-03-15T05:35:48.242Z,6.10
2023-03-15T05:38:37.222Z,10.40
2023-03-15T05:41:43.899Z,9.40
2023-03-15T05:45:09.306Z,10.90
2023-03-15T05:48:34.082Z,8.70
2023-03-15T05:51:34.153Z,10.50
2023-03-15T05:54:39.464Z,8.60
2023-03-15T05:57:44.231Z,7.90
2023-03-15T06:00:41.623Z,6.50
2023-03-15T06:03:32.956Z,7.60
2023-03-15T06:06:23.330Z,8.40
2023-03-15T06:09:09.881Z,6.90
2023-03-15T06:11:56.879Z,7.40
2023-03-15T06:14:43.833Z,8.60
2023-03-15T06:17:31.535Z,8.90
2023-03-15T06:20:18.659Z,6.90
2023-03-15T06:23:05.246Z,7.90
2023-03-15T06:25:58.906Z,8.00
2023-03-15T06:28:48.147Z,6.50
2023-03-15T06:31:35.001Z,6.70
2023-03-15T06:34:27.541Z,7.20
2023-03-15T06:37:22.852Z,8.10
2023-03-15T06:40:15.884Z,8.20
2023-03-15T06:43:05.451Z,7.80
2023-03-15T06:45:58.068Z,7.50
2023-03-15T06:48:44.831Z,8.00
2023-03-15T06:51:31.730Z,8.80
2023-03-15T06:54:18.170Z,7.40
2023-03-15T06:57:04.869Z,6.40
2023-03-15T06:59:53.437Z,8.90
2023-03-15T07:02:40.236Z,8.10
2023-03-15T07:05:26.990Z,7.00
2023-03-15T07:08:13.466Z,8.00
2023-03-15T07:11:02.460Z,9.90
2023-03-15T07:13:49.217Z,8.00
2023-03-15T07:16:35.802Z,7.60
2023-03-15T07:19:22.271Z,8.20
2023-03-15T07:22:08.931Z,7.50
2023-03-15T07:24:55.236Z,6.90
2023-03-15T07:27:41.576Z,8.10
2023-03-15T07:30:27.861Z,7.40
2023-03-15T07:33:14.363Z,7.10
2023-03-15T07:36:03.642Z,7.10
2023-03-15T07:38:50.364Z,7.30
2023-03-15T07:41:36.812Z,8.20
2023-03-15T07:44:26.584Z,8.10
2023-03-15T07:47:13.034Z,7.60
2023-03-15T07:49:59.760Z,7.40
2023-03-15T07:52:46.194Z,7.20
2023-03-15T07:55:35.371Z,7.60
2023-03-15T07:58:22.688Z,8.80
2023-03-15T08:01:09.157Z,7.50
2023-03-15T08:03:55.304Z,7.90
2023-03-15T08:06:41.897Z,9.00
2023-03-15T08:09:28.111Z,7.60
2023-03-15T08:12:14.769Z,8.80
2023-03-15T08:15:01.260Z,8.30
2023-03-15T08:17:48.719Z,7.80
2023-03-15T08:20:34.837Z,8.30
2023-03-15T08:23:21.604Z,8.10
2023-03-15T08:26:08.175Z,8.80
2023-03-15T08:28:54.636Z,7.00
2023-03-15T08:31:41.210Z,7.60
2023-03-15T08:34:27.598Z,6.30
2023-03-15T08:37:14.191Z,7.10
2023-03-15T08:40:05.008Z,7.70
2023-03-15T08:42:53.360Z,7.10
2023-03-15T08:45:59.545Z,8.20
2023-03-15T08:48:46.393Z,6.80
2023-03-15T08:51:33.105Z,6.90
2023-03-15T08:54:19.549Z,9.40
2023-03-15T08:57:06.103Z,7.30
2023-03-15T08:59:53.263Z,6.00
2023-03-15T09:02:39.682Z,7.20
2023-03-15T09:05:26.681Z,8.10
2023-03-15T09:08:16.351Z,6.30
2023-03-15T09:11:04.773Z,6.80
2023-03-15T09:13:51.425Z,6.70
2023-03-15T09:16:37.727Z,6.80
2023-03-15T09:19:24.188Z,8.60
2023-03-15T09:22:23.440Z,7.30
2023-03-15T09:25:10.534Z,6.70
2023-03-15T09:27:57.041Z,7.10
2023-03-15T09:30:43.323Z,6.50
2023-03-15T09:33:32.542Z,7.50
2023-03-15T09:36:19.062Z,7.20
2023-03-15T09:39:05.498Z,9.50
2023-03-15T09:41:58.331Z,7.90
2023-03-15T09:44:58.862Z,6.10
2023-03-15T09:48:24.511Z,6.60
2023-03-15T09:51:22.939Z,7.10
2023-03-15T09:54:27.009Z,7.30
2023-03-15T09:57:36.167Z,8.80
2023-03-15T10:00:40.458Z,6.80
2023-03-15T10:03:37.783Z,8.30
2023-03-15T10:06:37.803Z,6.80
2023-03-15T10:09:32.403Z,7.50
2023-03-15T10:12:30.582Z,7.60
2023-03-15T10:15:47.144Z,7.20
2023-03-15T10:19:27.674Z,7.10
2023-03-15T10:22:59.336Z,8.30
2023-03-15T10:25:50.518Z,8.30
2023-03-15T10:28:38.559Z,8.90
2023-03-15T10:31:44.065Z,8.90
2023-03-15T10:34:31.824Z,8.10
2023-03-15T10:37:19.670Z,8.10
2023-03-15T10:40:10.359Z,8.70
2023-03-15T10:42:57.489Z,8.50
2023-03-15T10:46:07.358Z,8.70
2023-03-15T10:49:11.538Z,7.80
2023-03-15T10:51:58.293Z,10.10
2023-03-15T10:54:46.443Z,8.10
2023-03-15T10:57:50.143Z,8.30
2023-03-15T11:00:37.093Z,10.30
2023-03-15T11:03:25.523Z,10.00
2023-03-15T11:06:28.210Z,8.00
2023-03-15T11:09:25.482Z,8.50
2023-03-15T11:12:30.391Z,11.40
2023-03-15T11:15:18.856Z,7.60
2023-03-15T11:18:06.216Z,8.80
2023-03-15T11:20:55.828Z,9.60
2023-03-15T11:23:49.288Z,9.00
2023-03-15T11:26:40.466Z,8.20
2023-03-15T11:29:34.988Z,7.50
2023-03-15T11:32:26.408Z,8.10
2023-03-15T11:35:28.136Z,9.40
2023-03-15T11:38:29.667Z,8.10
2023-03-15T11:42:05.010Z,10.00
2023-03-15T11:44:58.492Z,6.60
2023-03-15T11:48:04.821Z,10.50
2023-03-15T11:50:57.064Z,8.90
2023-03-15T11:54:06.202Z,8.00
2023-03-15T11:57:02.767Z,9.30
2023-03-15T11:59:48.965Z,10.30
2023-03-15T12:02:48.753Z,9.30
2023-03-15T12:05:51.899Z,7.60
2023-03-15T12:08:50.876Z,9.10
2023-03-15T12:11:40.460Z,7.90
2023-03-15T12:14:36.669Z,9.30
2023-03-15T12:17:28.553Z,8.50
2023-03-15T12:20:17.218Z,8.20
2023-03-15T12:23:30.323Z,8.40
2023-03-15T12:26:25.808Z,7.70
2023-03-15T12:29:23.637Z,8.10
2023-03-15T12:32:18.349Z,9.60
2023-03-15T12:35:17.084Z,8.50
2023-03-15T12:38:22.784Z,8.70
2023-03-15T12:41:40.127Z,8.40
2023-03-15T12:44:40.511Z,7.50
2023-03-15T12:47:46.010Z,8.40
2023-03-15T12:50:37.283Z,8.90
2023-03-15T12:53:53.210Z,10.00
2023-03-15T12:56:53.744Z,9.70
2023-03-15T13:00:11.186Z,8.70
2023-03-15T13:03:18.486Z,8.40
2023-03-15T13:06:38.023Z,8.40
2023-03-15T13:09:30.991Z,8.60
2023-03-15T13:12:47.415Z,7.90
2023-03-15T13:15:57.883Z,9.70
2023-03-15T13:19:04.743Z,8.80
2023-03-15T13:22:30.741Z,7.70
2023-03-15T13:25:43.010Z,8.30
2023-03-15T13:28:46.235Z,7.90
2023-03-15T13:31:33.458Z,10.30
2023-03-15T13:34:23.586Z,7.90
2023-03-15T13:37:28.467Z,6.40
2023-03-15T13:40:15.385Z,9.90
2023-03-15T13:43:01.882Z,8.20
2023-03-15T13:45:48.402Z,9.20
2023-03-15T13:48:40.478Z,9.80
2023-03-15T13:51:34.608Z,7.50
2023-03-15T13:54:33.582Z,8.70
2023-03-15T13:57:22.137Z,8.30
2023-03-15T14:00:19.253Z,12.30
2023-03-15T14:03:16.575Z,10.50
2023-03-15T14:06:03.294Z,10.70
2023-03-15T14:09:00.587Z,12.60
2023-03-15T14:12:01.812Z,9.90
2023-03-15T14:14:53.137Z,8.20
2023-03-15T14:18:03.132Z,7.70
2023-03-15T14:21:21.174Z,10.50
2023-03-15T14:24:13.486Z,10.60
2023-03-15T14:27:17.522Z,6.00
2023-03-15T14:30:19.387Z,7.90
2023-03-15T14:33:08.131Z,9.50
2023-03-15T14:35:59.181Z,8.90
2023-03-15T14:38:53.269Z,10.10
2023-03-15T14:41:40.895Z,10.20
2023-03-15T14:44:27.513Z,8.50
2023-03-15T14:47:16.552Z,8.50
2023-03-15T14:50:03.472Z,8.90
2023-03-15T14:52:51.256Z,8.10
2023-03-15T14:55:37.776Z,7.20
2023-03-15T14:58:24.268Z,7.50
2023-03-15T15:01:19.180Z,8.40
2023-03-15T15:04:06.364Z,6.60
2023-03-15T15:06:55.287Z,7.20
2023-03-15T15:09:49.582Z,9.50
2023-03-15T15:12:35.987Z,9.80
2023-03-15T15:15:22.673Z,10.20
2023-03-15T15:18:09.114Z,9.40
2023-03-15T15:20:57.828Z,8.70
2023-03-15T15:23:57.539Z,12.10
2023-03-15T15:26:46.669Z,8.30
2023-03-15T15:29:33.181Z,12.20
2023-03-15T15:32:19.818Z,10.10
2023-03-15T15:35:08.224Z,10.90
2023-03-15T15:37:55.114Z,9.40
2023-03-15T15:40:42.008Z,7.70
2023-03-15T15:43:28.856Z,10.80
2023-03-15T15:46:15.529Z,9.70
2023-03-15T15:49:02.087Z,9.50
2023-03-15T15:51:49.157Z,7.40
2023-03-15T15:54:35.780Z,6.50
2023-03-15T15:57:26.015Z,7.90
2023-03-15T16:00:20.421Z,8.10
2023-03-15T16:03:15.767Z,9.90
2023-03-15T16:06:02.153Z,7.50
2023-03-15T16:08:52.090Z,7.10
2023-03-15T16:11:39.306Z,7.30
2023-03-15T16:14:25.976Z,7.60
2023-03-15T16:17:22.326Z,13.20
2023-03-15T16:20:10.937Z,13.10
2023-03-15T16:23:00.112Z,13.70
2023-03-15T16:25:55.816Z,14.00
2023-03-15T16:28:43.328Z,10.70
2023-03-15T16:31:36.675Z,13.70
2023-03-15T16:34:24.517Z,10.10
2023-03-15T16:37:28.580Z,6.60
2023-03-15T16:40:25.975Z,10.70
2023-03-15T16:43:13.176Z,9.60
2023-03-15T16:46:00.406Z,14.00
2023-03-15T16:48:48.052Z,14.80
2023-03-15T16:51:38.631Z,27.10
2023-03-15T16:54:40.308Z,13.90
2023-03-15T16:57:32.330Z,13.10
2023-03-15T17:00:24.993Z,11.20
2023-03-15T17:03:12.543Z,12.60
2023-03-15T17:06:00.812Z,11.80
2023-03-15T17:09:01.400Z,11.90
2023-03-15T17:11:55.575Z,12.10
2023-03-15T17:14:43.627Z,9.40
2023-03-15T17:17:36.301Z,13.60
2023-03-15T17:20:26.621Z,13.20
2023-03-15T17:23:15.520Z,11.70
2023-03-15T17:26:03.180Z,12.60
2023-03-15T17:28:50.334Z,12.20
2023-03-15T17:31:44.328Z,11.30
2023-03-15T17:34:33.316Z,13.10
2023-03-15T17:37:20.519Z,14.30
2023-03-15T17:40:21.196Z,11.40
2023-03-15T17:43:14.036Z,10.70
2023-03-15T17:46:00.491Z,12.50
2023-03-15T17:48:48.788Z,11.20
2023-03-15T17:51:36.956Z,13.40
2023-03-15T17:54:24.099Z,12.20
2023-03-15T17:57:14.205Z,11.60
2023-03-15T18:00:01.026Z,10.70
2023-03-15T18:02:59.582Z,12.20
2023-03-15T18:05:46.928Z,17.60
2023-03-15T18:08:33.551Z,14.60
2023-03-15T18:11:25.813Z,16.10
2023-03-15T18:14:15.303Z,16.70
2023-03-15T18:17:05.208Z,13.60
2023-03-15T18:19:52.134Z,11.80
2023-03-15T18:22:40.507Z,12.20
2023-03-15T18:25:31.438Z,15.10
2023-03-15T18:28:17.609Z,13.00
2023-03-15T18:31:04.307Z,13.20
2023-03-15T18:33:53.299Z,28.00
2023-03-15T18:36:40.298Z,22.60
2023-03-15T18:39:26.834Z,30.50
2023-03-15T18:42:12.930Z,25.20
2023-03-15T18:45:00.329Z,21.90
2023-03-15T18:47:47.114Z,17.70
2023-03-15T18:50:34.333Z,17.10
2023-03-15T18:53:20.649Z,15.00
2023-03-15T18:56:13.103Z,16.90
2023-03-15T18:59:01.288Z,19.20
2023-03-15T19:01:48.694Z,18.20
2023-03-15T19:04:35.042Z,17.50
2023-03-15T19:07:21.457Z,21.30
2023-03-15T19:10:12.980Z,21.30
2023-03-15T19:12:59.505Z,27.30
2023-03-15T19:15:47.137Z,23.30
2023-03-15T19:18:34.376Z,24.10
2023-03-15T19:21:21.346Z,26.80
2023-03-15T19:24:08.342Z,21.70
2023-03-15T19:26:54.843Z,22.80
2023-03-15T19:29:41.351Z,17.00
2023-03-15T19:32:29.295Z,16.20
2023-03-15T19:35:18.654Z,13.80
2023-03-15T19:38:05.728Z,15.50
2023-03-15T19:40:54.656Z,10.50
2023-03-15T19:43:42.737Z,12.30
2023-03-15T19:46:29.190Z,12.60
2023-03-15T19:49:15.741Z,16.00
2023-03-15T19:52:02.945Z,15.10
2023-03-15T19:54:51.145Z,14.10
2023-03-15T19:57:40.905Z,14.20
2023-03-15T20:00:27.600Z,11.20
2023-03-15T20:03:15.192Z,11.60
2023-03-15T20:06:15.913Z,11.50
2023-03-15T20:09:04.682Z,11.30
2023-03-15T20:11:51.541Z,9.60
2023-03-15T20:14:38.399Z,11.40
2023-03-15T20:17:26.373Z,14.00
2023-03-15T20:20:14.130Z,16.00
2023-03-15T20:23:01.244Z,13.30
2023-03-15T20:25:49.644Z,16.50
2023-03-15T20:28:41.327Z,15.90
2023-03-15T20:31:27.986Z,17.00
2023-03-15T20:34:16.692Z,14.80
2023-03-15T20:37:03.236Z,13.60
2023-03-15T20:39:49.405Z,10.20
2023-03-15T20:42:35.770Z,12.20
2023-03-15T20:45:21.849Z,11.60
2023-03-15T20:48:08.665Z,11.90
2023-03-15T20:50:57.422Z,13.20
2023-03-15T20:53:44.144Z,11.10
2023-03-15T20:56:31.227Z,12.90
2023-03-15T20:59:17.770Z,12.50
2023-03-15T21:02:04.475Z,14.50
2023-03-15T21:04:51.183Z,13.50
2023-03-15T21:07:38.471Z,17.70
2023-03-15T21:10:25.231Z,14.00
2023-03-15T21:13:15.211Z,15.10
2023-03-15T21:16:05.661Z,19.00
2023-03-15T21:18:54.239Z,16.90
2023-03-15T21:21:43.977Z,17.60
2023-03-15T21:24:38.542Z,15.90
2023-03-15T21:27:27.461Z,15.50
2023-03-15T21:30:14.710Z,16.40
2023-03-15T21:33:01.626Z,16.90
2023-03-15T21:35:49.129Z,17.30
2023-03-15T21:38:35.981Z,13.10
2023-03-15T21:41:23.950Z,15.20
2023-03-15T21:44:10.913Z,14.10
2023-03-15T21:46:58.088Z,15.20
2023-03-15T21:49:44.813Z,16.90
2023-03-15T21:52:31.949Z,16.10
2023-03-15T21:55:19.310Z,15.50
2023-03-15T21:58:05.827Z,11.10
2023-03-15T22:01:07.237Z,13.30
2023-03-15T22:03:54.092Z,15.20
2023-03-15T22:06:41.141Z,11.70
2023-03-15T22:09:27.596Z,11.80
2023-03-15T22:12:15.551Z,9.60
2023-03-15T22:15:06.250Z,15.50
2023-03-15T22:17:52.998Z,15.80
2023-03-15T22:20:39.304Z,18.40
2023-03-15T22:23:26.724Z,15.00
2023-03-15T22:26:13.265Z,15.60
2023-03-15T22:28:59.824Z,17.60
2023-03-15T22:31:46.445Z,14.60
2023-03-15T22:34:33.582Z,18.70
2023-03-15T22:37:20.052Z,16.50
2023-03-15T22:40:08.730Z,15.70
2023-03-15T22:42:56.610Z,18.50
2023-03-15T22:45:42.753Z,18.60
2023-03-15T22:48:29.710Z,16.50
2023-03-15T22:51:16.443Z,13.20
2023-03-15T22:54:02.719Z,11.30
2023-03-15T22:56:50.805Z,12.70
2023-03-15T22:59:38.918Z,11.40
2023-03-15T23:02:25.934Z,15.50
2023-03-15T23:05:13.191Z,11.00
2023-03-15T23:07:59.667Z,14.30
2023-03-15T23:10:46.110Z,16.00
2023-03-15T23:13:32.527Z,16.50
2023-03-15T23:16:19.122Z,13.70
2023-03-15T23:19:05.879Z,15.10
2023-03-15T23:21:52.423Z,14.80
2023-03-15T23:24:39.754Z,12.20
2023-03-15T23:27:26.312Z,11.30
2023-03-15T23:30:14.409Z,12.00
2023-03-15T23:33:01.913Z,10.90
2023-03-15T23:35:48.449Z,15.30
2023-03-15T23:38:35.187Z,12.50
2023-03-15T23:41:21.543Z,10.10
2023-03-15T23:44:10.085Z,10.70
2023-03-15T23:46:56.401Z,11.90
2023-03-15T23:49:42.975Z,12.70
2023-03-15T23:52:29.354Z,10.40
2023-03-15T23:55:15.824Z,12.00
2023-03-15T23:58:02.989Z,13.80
